Time;durP1;ratioP1;P1;durP2;ratioP2;P2;SDS_P1;SDS_P2;PMS_P1;PMS_P2;Temp;Humidity;BMP_temperature;BMP_pressure;BME280_temperature;BME280_humidity;BME280_pressure;Samples;Min_cycle;Max_cycle;Signal;HPM_P1;HPM_P2
2021/05/28 00:01:46;;;;;;;5.80;5.30;;;10.80;99.90;;;;;;5110513;28;20699;-69
2021/05/28 00:04:13;;;;;;;5.18;4.75;;;10.70;99.90;;;;;;5111079;28;20633;-69
2021/05/28 00:06:39;;;;;;;6.18;5.60;;;10.80;99.90;;;;;;5110123;28;20294;-69
2021/05/28 00:09:07;;;;;;;6.38;5.78;;;10.80;99.90;;;;;;5110270;28;20225;-69
2021/05/28 00:11:33;;;;;;;8.18;7.43;;;10.70;99.90;;;;;;5108672;28;20230;-69
2021/05/28 00:13:59;;;;;;;8.18;7.38;;;10.60;99.90;;;;;;5110569;28;20203;-69
2021/05/28 00:16:26;;;;;;;7.93;7.13;;;10.50;99.90;;;;;;5110575;28;20202;-69
2021/05/28 00:18:52;;;;;;;8.45;7.75;;;10.50;99.90;;;;;;5110386;28;20234;-69
2021/05/28 00:21:18;;;;;;;8.95;8.15;;;10.40;99.90;;;;;;5110002;28;20260;-69
2021/05/28 00:23:45;;;;;;;7.38;6.78;;;10.40;99.90;;;;;;5110221;28;20299;-69
2021/05/28 00:26:12;;;;;;;8.55;7.47;;;10.30;99.90;;;;;;5109992;28;20206;-69
2021/05/28 00:28:38;;;;;;;7.80;7.00;;;10.30;99.90;;;;;;5110189;28;20218;-68
2021/05/28 00:31:05;;;;;;;8.35;7.65;;;10.20;99.90;;;;;;5109824;28;20285;-69
2021/05/28 00:33:31;;;;;;;8.45;7.65;;;10.20;99.90;;;;;;5109983;28;20190;-71
2021/05/28 00:35:57;;;;;;;9.23;8.40;;;10.30;99.90;;;;;;5109840;28;20288;-70
2021/05/28 00:38:24;;;;;;;9.48;8.65;;;10.40;99.90;;;;;;5110223;28;20561;-69
2021/05/28 00:40:50;;;;;;;9.52;8.55;;;10.40;99.90;;;;;;5109948;28;20231;-69
2021/05/28 00:43:17;;;;;;;9.40;8.50;;;10.70;99.90;;;;;;5109815;28;20226;-69
2021/05/28 00:45:44;;;;;;;8.95;8.05;;;10.70;99.90;;;;;;5109265;28;20295;-68
2021/05/28 00:48:10;;;;;;;9.85;8.85;;;10.70;99.90;;;;;;5110120;28;20286;-69
2021/05/28 00:50:36;;;;;;;9.20;8.13;;;10.60;99.90;;;;;;5109677;28;20253;-69
2021/05/28 00:53:03;;;;;;;9.55;8.57;;;10.70;99.90;;;;;;5109738;28;20196;-69
2021/05/28 00:55:29;;;;;;;11.40;10.27;;;10.70;99.90;;;;;;5109492;28;20206;-69
2021/05/28 00:57:56;;;;;;;10.85;9.90;;;10.70;99.90;;;;;;5109434;28;20227;-69
2021/05/28 01:00:27;;;;;;;12.93;11.02;;;10.70;99.90;;;;;;5109529;28;20196;-69
2021/05/28 01:02:53;;;;;;;11.40;10.30;;;10.90;99.90;;;;;;5108138;28;20212;-69
2021/05/28 01:05:20;;;;;;;10.85;9.80;;;10.90;99.90;;;;;;5109777;28;20202;-69
2021/05/28 01:07:47;;;;;;;11.30;10.20;;;10.90;99.90;;;;;;5109455;28;20203;-69
2021/05/28 01:10:14;;;;;;;14.10;10.18;;;11.00;99.90;;;;;;5108965;28;20196;-69
2021/05/28 01:12:41;;;;;;;10.57;9.52;;;11.00;99.90;;;;;;5109500;28;20319;-69
2021/05/28 01:15:08;;;;;;;10.65;9.55;;;11.00;99.90;;;;;;5109466;28;20243;-69
2021/05/28 01:17:35;;;;;;;12.07;9.40;;;11.00;99.90;;;;;;5109286;28;20260;-69
2021/05/28 01:20:03;;;;;;;10.35;9.35;;;11.00;99.90;;;;;;5108819;28;20200;-69
2021/05/28 01:22:30;;;;;;;7.90;7.10;;;11.00;99.90;;;;;;5107876;28;20664;-69
2021/05/28 01:25:00;;;;;;;7.40;6.70;;;11.00;99.90;;;;;;5092683;28;20196;-69
2021/05/28 01:27:27;;;;;;;8.15;7.40;;;11.00;99.90;;;;;;5089068;28;20291;-69
2021/05/28 01:29:54;;;;;;;7.43;6.82;;;11.00;99.90;;;;;;5092456;28;20199;-69
2021/05/28 01:32:20;;;;;;;7.65;6.95;;;10.90;99.90;;;;;;5109228;28;20200;-69
2021/05/28 01:34:47;;;;;;;7.63;6.93;;;11.00;99.90;;;;;;5108722;28;20755;-69
2021/05/28 01:37:13;;;;;;;6.32;5.82;;;11.00;99.90;;;;;;5109209;28;20208;-69
2021/05/28 01:39:45;;;;;;;8.40;6.03;;;11.00;99.90;;;;;;5108719;28;20233;-69
2021/05/28 01:42:11;;;;;;;7.18;6.43;;;10.90;99.90;;;;;;5108469;28;20627;-69
2021/05/28 01:44:38;;;;;;;6.82;6.00;;;11.00;99.90;;;;;;5108686;28;20217;-69
2021/05/28 01:47:04;;;;;;;5.53;5.05;;;11.00;99.90;;;;;;5109151;28;20610;-69
2021/05/28 01:49:30;;;;;;;5.97;5.38;;;11.00;99.90;;;;;;5108984;28;20203;-69
2021/05/28 01:51:57;;;;;;;6.32;5.75;;;11.00;99.90;;;;;;5108132;28;20230;-69
2021/05/28 01:54:23;;;;;;;6.07;5.57;;;11.00;99.90;;;;;;5108626;28;20208;-69
2021/05/28 01:56:51;;;;;;;7.45;6.82;;;11.00;99.90;;;;;;5108534;28;20336;-69
2021/05/28 01:59:24;;;;;;;7.57;6.80;;;11.00;99.90;;;;;;5108400;28;20242;-69
2021/05/28 02:01:51;;;;;;;7.75;6.28;;;11.00;99.90;;;;;;5108438;28;20208;-69
2021/05/28 02:04:17;;;;;;;6.47;5.72;;;11.00;99.90;;;;;;5108239;28;20210;-69
2021/05/28 02:06:44;;;;;;;7.20;6.50;;;11.00;99.90;;;;;;5108379;28;20272;-69
2021/05/28 02:09:10;;;;;;;6.80;6.10;;;11.00;99.90;;;;;;5108101;28;20212;-69
2021/05/28 02:11:37;;;;;;;7.25;5.93;;;11.00;99.90;;;;;;5107766;28;20195;-69
2021/05/28 02:14:04;;;;;;;7.70;6.85;;;11.00;99.90;;;;;;5107756;28;20200;-69
2021/05/28 02:16:32;;;;;;;8.30;7.50;;;11.00;99.90;;;;;;5108397;28;20685;-69
2021/05/28 02:18:58;;;;;;;8.80;8.00;;;11.00;99.90;;;;;;5108013;28;20345;-70
2021/05/28 02:21:25;;;;;;;7.13;6.53;;;11.00;99.90;;;;;;5107991;28;20279;-69
2021/05/28 02:23:51;;;;;;;7.43;5.97;;;10.90;99.90;;;;;;5108656;28;20207;-69
2021/05/28 02:26:17;;;;;;;7.40;6.70;;;10.90;99.90;;;;;;5108414;28;20325;-69
2021/05/28 02:28:44;;;;;;;7.53;6.75;;;10.90;99.90;;;;;;5108787;28;20196;-69
2021/05/28 02:31:11;;;;;;;6.63;6.10;;;10.90;99.90;;;;;;5108605;28;20223;-69
2021/05/28 02:33:38;;;;;;;7.20;6.50;;;10.90;99.90;;;;;;5108736;28;20260;-69
2021/05/28 02:36:05;;;;;;;6.30;5.63;;;10.90;99.90;;;;;;5110697;28;20294;-69
2021/05/28 02:38:31;;;;;;;6.65;6.05;;;10.90;99.90;;;;;;5110794;28;20231;-69
2021/05/28 02:40:58;;;;;;;6.72;6.07;;;10.90;99.90;;;;;;5111619;28;20200;-69
2021/05/28 02:43:25;;;;;;;7.25;6.55;;;10.90;99.90;;;;;;5110646;28;20313;-69
2021/05/28 02:45:51;;;;;;;6.80;6.20;;;10.90;99.90;;;;;;5110564;28;20277;-69
2021/05/28 02:48:20;;;;;;;7.85;6.80;;;10.80;99.90;;;;;;5109324;28;20298;-69
2021/05/28 02:50:46;;;;;;;7.88;6.22;;;10.90;99.90;;;;;;5107376;28;20275;-69
2021/05/28 02:53:13;;;;;;;6.90;6.30;;;10.90;99.90;;;;;;5107626;28;20209;-69
2021/05/28 02:55:40;;;;;;;5.97;5.47;;;10.90;99.90;;;;;;5107304;28;20302;-69
2021/05/28 02:58:06;;;;;;;7.40;6.60;;;10.90;99.90;;;;;;5107590;28;20224;-69
2021/05/28 03:00:36;;;;;;;6.68;6.07;;;10.90;99.90;;;;;;5107202;28;20203;-70
2021/05/28 03:03:03;;;;;;;6.32;5.65;;;10.90;99.90;;;;;;5108633;28;20260;-70
2021/05/28 03:05:39;;;;;;;5.80;5.30;;;10.90;99.90;;;;;;5108226;28;20203;-70
2021/05/28 03:08:09;;;;;;;6.72;5.45;;;10.90;99.90;;;;;;5108665;28;20207;-71
2021/05/28 03:10:35;;;;;;;5.78;5.28;;;10.90;99.90;;;;;;5106767;28;20223;-70
2021/05/28 03:13:02;;;;;;;6.97;6.28;;;10.90;99.90;;;;;;5107506;28;20302;-70
2021/05/28 03:15:28;;;;;;;6.50;5.75;;;10.90;99.90;;;;;;5107366;28;20227;-69
2021/05/28 03:17:54;;;;;;;6.35;5.75;;;10.90;99.90;;;;;;5107211;28;20218;-69
2021/05/28 03:20:24;;;;;;;8.00;7.28;;;10.90;99.90;;;;;;5106836;28;20199;-69
2021/05/28 03:22:51;;;;;;;8.10;7.40;;;10.90;99.90;;;;;;5107338;28;20199;-69
2021/05/28 03:25:18;;;;;;;9.63;8.73;;;10.90;99.90;;;;;;5109099;28;20214;-69
2021/05/28 03:27:48;;;;;;;7.93;7.18;;;10.90;99.90;;;;;;5111588;28;20290;-69
2021/05/28 03:30:16;;;;;;;10.77;7.88;;;10.90;99.90;;;;;;5110990;28;20199;-69
2021/05/28 03:32:42;;;;;;;8.90;8.07;;;10.90;99.90;;;;;;5111208;28;20207;-69
2021/05/28 03:35:09;;;;;;;8.52;7.63;;;10.90;99.90;;;;;;5110754;28;20207;-69
2021/05/28 03:37:38;;;;;;;8.27;7.07;;;10.80;99.90;;;;;;5111027;28;20867;-69
2021/05/28 03:40:07;;;;;;;8.55;7.65;;;10.80;99.90;;;;;;5110917;28;20192;-69
2021/05/28 03:42:34;;;;;;;9.18;7.78;;;10.80;99.90;;;;;;5110932;28;20423;-69
2021/05/28 03:45:00;;;;;;;9.35;7.30;;;10.80;99.90;;;;;;5110944;28;20199;-69
2021/05/28 03:47:26;;;;;;;9.10;8.18;;;10.80;99.90;;;;;;5111030;28;20302;-69
2021/05/28 03:49:53;;;;;;;8.13;7.43;;;10.80;99.90;;;;;;5110486;28;20670;-69
2021/05/28 03:52:19;;;;;;;8.30;7.47;;;10.80;99.90;;;;;;5110912;28;20258;-69
2021/05/28 03:54:46;;;;;;;11.80;7.47;;;10.90;99.90;;;;;;5110736;28;20261;-69
2021/05/28 03:57:13;;;;;;;7.88;7.07;;;10.90;99.90;;;;;;5111017;28;20227;-69
2021/05/28 03:59:39;;;;;;;7.00;6.30;;;10.90;99.90;;;;;;5110677;28;20779;-69
2021/05/28 04:02:06;;;;;;;8.15;7.13;;;11.00;99.90;;;;;;5110489;28;20195;-69
2021/05/28 04:04:33;;;;;;;8.18;7.32;;;10.90;99.90;;;;;;5110210;28;20214;-69
2021/05/28 04:07:01;;;;;;;9.50;7.13;;;10.90;99.90;;;;;;5110599;28;20252;-69
2021/05/28 04:09:27;;;;;;;7.72;7.03;;;10.90;99.90;;;;;;5110347;28;20223;-69
2021/05/28 04:11:53;;;;;;;7.60;6.85;;;10.90;99.90;;;;;;5109723;28;20208;-69
2021/05/28 04:14:20;;;;;;;8.10;6.47;;;10.90;99.90;;;;;;5110226;28;20200;-69
2021/05/28 04:16:47;;;;;;;6.75;6.10;;;11.00;99.90;;;;;;5110469;28;20206;-69
2021/05/28 04:19:13;;;;;;;6.63;5.95;;;11.10;99.90;;;;;;5109876;28;20242;-69
2021/05/28 04:21:39;;;;;;;6.43;5.82;;;11.20;99.90;;;;;;5110282;28;20208;-69
2021/05/28 04:24:07;;;;;;;6.70;5.65;;;11.20;99.90;;;;;;5105583;28;20188;-69
2021/05/28 04:26:33;;;;;;;5.78;5.28;;;11.30;99.90;;;;;;5109889;28;20335;-69
2021/05/28 04:29:00;;;;;;;6.15;5.22;;;11.20;99.90;;;;;;5110793;28;20210;-69
2021/05/28 04:31:27;;;;;;;6.05;5.45;;;11.10;99.90;;;;;;5110054;28;20284;-69
2021/05/28 04:33:54;;;;;;;6.28;5.68;;;11.10;99.90;;;;;;5109908;28;20670;-69
2021/05/28 04:36:20;;;;;;;6.20;5.70;;;11.10;99.90;;;;;;5089622;28;20205;-69
2021/05/28 04:38:47;;;;;;;5.75;5.25;;;11.30;99.90;;;;;;5097952;28;20240;-69
2021/05/28 04:41:13;;;;;;;5.90;5.40;;;11.50;99.90;;;;;;5110307;28;20241;-69
2021/05/28 04:43:39;;;;;;;6.85;5.63;;;11.90;99.90;;;;;;5109618;28;20282;-69
2021/05/28 04:46:06;;;;;;;5.10;4.70;;;12.80;99.90;;;;;;5104784;28;20221;-69
2021/05/28 04:48:33;;;;;;;5.13;4.50;;;13.50;99.90;;;;;;5109577;28;20207;-69
2021/05/28 04:50:59;;;;;;;4.30;4.00;;;13.90;99.90;;;;;;5109298;28;20318;-69
2021/05/28 04:53:26;;;;;;;5.38;4.88;;;13.80;99.90;;;;;;5109613;28;20210;-69
2021/05/28 04:55:52;;;;;;;5.35;4.85;;;13.60;99.90;;;;;;5109574;28;20204;-69
2021/05/28 04:58:18;;;;;;;4.82;4.40;;;13.50;99.90;;;;;;5109681;28;20308;-69
2021/05/28 05:00:45;;;;;;;5.32;4.82;;;13.30;99.90;;;;;;5100268;28;20630;-69
2021/05/28 05:03:11;;;;;;;6.60;5.40;;;13.20;99.90;;;;;;5107557;28;20196;-69
2021/05/28 05:05:38;;;;;;;6.78;5.63;;;13.10;99.90;;;;;;5109188;28;20192;-69
2021/05/28 05:08:05;;;;;;;6.95;5.95;;;13.10;99.90;;;;;;5109920;28;20246;-69
2021/05/28 05:10:31;;;;;;;6.57;5.82;;;13.10;99.90;;;;;;5109119;28;20317;-69
2021/05/28 05:12:58;;;;;;;6.72;6.03;;;13.20;99.90;;;;;;5104777;28;20195;-69
2021/05/28 05:15:24;;;;;;;6.38;5.55;;;13.10;99.90;;;;;;5109283;28;20303;-69
2021/05/28 05:17:50;;;;;;;7.70;6.18;;;13.00;99.90;;;;;;5109045;28;20225;-69
2021/05/28 05:20:16;;;;;;;8.05;6.40;;;13.00;99.90;;;;;;5109077;28;20209;-69
2021/05/28 05:22:44;;;;;;;7.03;5.85;;;13.00;99.90;;;;;;5109155;28;20565;-69
2021/05/28 05:25:11;;;;;;;6.15;5.45;;;12.90;99.90;;;;;;5109474;28;20575;-70
2021/05/28 05:27:37;;;;;;;6.43;5.82;;;12.90;99.90;;;;;;5109261;28;20243;-70
2021/05/28 05:30:05;;;;;;;7.75;6.97;;;13.00;99.90;;;;;;5109673;28;20207;-70
2021/05/28 05:32:32;;;;;;;7.65;6.93;;;13.10;99.90;;;;;;5109115;28;20575;-69
2021/05/28 05:34:58;;;;;;;7.45;6.63;;;13.40;99.90;;;;;;5108436;28;20210;-69
2021/05/28 05:37:24;;;;;;;7.10;6.40;;;13.90;99.90;;;;;;5109251;28;20237;-68
2021/05/28 05:39:52;;;;;;;9.15;7.47;;;14.40;99.90;;;;;;5108883;28;20892;-68
2021/05/28 05:42:18;;;;;;;7.28;5.78;;;15.10;99.90;;;;;;5108987;28;20672;-68
2021/05/28 05:44:44;;;;;;;6.80;6.10;;;15.30;99.40;;;;;;5108758;28;20200;-68
2021/05/28 05:47:11;;;;;;;7.68;7.07;;;15.90;98.20;;;;;;5102577;28;20696;-68
2021/05/28 05:49:38;;;;;;;8.63;6.97;;;16.90;96.30;;;;;;5088343;28;20545;-69
2021/05/28 05:52:05;;;;;;;7.10;6.35;;;17.00;95.40;;;;;;5107731;28;20211;-68
2021/05/28 05:54:32;;;;;;;13.40;6.80;;;16.90;95.40;;;;;;5108397;28;20196;-68
2021/05/28 05:56:59;;;;;;;7.80;7.10;;;16.50;95.30;;;;;;5108992;28;20200;-68
2021/05/28 05:59:28;;;;;;;7.88;7.07;;;16.30;95.70;;;;;;5093880;28;20319;-68
2021/05/28 06:01:55;;;;;;;8.40;7.35;;;16.10;96.40;;;;;;5088267;28;20211;-68
2021/05/28 06:04:21;;;;;;;7.55;6.60;;;15.80;96.00;;;;;;5099827;28;20235;-68
2021/05/28 06:06:48;;;;;;;7.82;6.97;;;15.50;96.80;;;;;;5108641;28;20687;-68
2021/05/28 06:09:14;;;;;;;9.05;7.00;;;15.30;96.90;;;;;;5107731;28;20211;-68
2021/05/28 06:11:40;;;;;;;8.73;7.85;;;15.20;97.20;;;;;;5107515;28;20248;-67
2021/05/28 06:14:08;;;;;;;8.23;7.13;;;15.20;97.80;;;;;;5097533;28;20204;-68
2021/05/28 06:16:34;;;;;;;8.00;7.20;;;15.20;97.50;;;;;;5108153;28;20203;-68
2021/05/28 06:19:01;;;;;;;7.07;6.43;;;15.20;97.90;;;;;;5092569;27;20228;-68
2021/05/28 06:21:27;;;;;;;7.28;6.68;;;15.20;97.50;;;;;;5100640;28;20286;-68
2021/05/28 06:23:53;;;;;;;7.55;6.85;;;15.40;97.40;;;;;;5091393;28;20324;-68
2021/05/28 06:26:20;;;;;;;7.60;6.90;;;15.60;97.40;;;;;;5096008;28;20290;-68
2021/05/28 06:28:46;;;;;;;8.20;7.50;;;15.90;96.60;;;;;;5102471;28;20751;-68
2021/05/28 06:31:13;;;;;;;7.80;7.00;;;15.60;96.30;;;;;;5105542;28;20198;-68
2021/05/28 06:33:39;;;;;;;7.90;7.13;;;15.40;96.10;;;;;;5104231;28;20204;-68
2021/05/28 06:36:06;;;;;;;7.38;6.63;;;15.20;96.90;;;;;;5100776;28;20346;-68
2021/05/28 06:38:33;;;;;;;8.50;7.65;;;15.20;97.40;;;;;;5098108;28;20329;-68
2021/05/28 06:40:59;;;;;;;10.50;9.02;;;15.20;97.50;;;;;;5098445;28;20196;-68
2021/05/28 06:43:26;;;;;;;8.77;7.20;;;15.10;97.70;;;;;;5098741;28;20217;-68
2021/05/28 06:45:52;;;;;;;8.32;7.50;;;15.30;97.70;;;;;;5101545;28;20353;-68
2021/05/28 06:48:19;;;;;;;8.27;7.38;;;15.60;97.90;;;;;;5096790;28;20232;-68
2021/05/28 06:50:46;;;;;;;7.97;7.28;;;15.80;97.30;;;;;;5103184;28;20770;-68
2021/05/28 06:53:12;;;;;;;9.40;7.95;;;16.20;97.10;;;;;;5104770;28;20724;-68
2021/05/28 06:55:39;;;;;;;8.00;7.30;;;16.30;96.30;;;;;;5100833;28;20290;-68
2021/05/28 06:58:06;;;;;;;9.10;8.20;;;16.60;96.00;;;;;;5097340;28;20196;-68
2021/05/28 07:00:32;;;;;;;9.77;7.40;;;17.10;95.40;;;;;;5096694;28;20200;-68
2021/05/28 07:02:59;;;;;;;8.27;7.47;;;17.50;94.50;;;;;;5105832;28;20227;-68
2021/05/28 07:05:28;;;;;;;8.23;6.60;;;17.60;94.10;;;;;;5104447;28;20274;-68
2021/05/28 07:07:55;;;;;;;6.90;6.23;;;18.30;92.90;;;;;;5097716;28;20633;-68
2021/05/28 07:10:21;;;;;;;8.60;7.77;;;18.60;92.60;;;;;;5105933;28;20650;-68
2021/05/28 07:12:48;;;;;;;7.10;6.40;;;18.80;91.20;;;;;;5103294;28;20640;-68
2021/05/28 07:15:15;;;;;;;7.73;7.03;;;18.90;91.10;;;;;;5108053;28;20628;-68
2021/05/28 07:17:41;;;;;;;7.40;6.70;;;19.00;91.10;;;;;;5108656;28;20632;-68
2021/05/28 07:20:09;;;;;;;6.53;5.93;;;19.70;90.60;;;;;;5104874;28;21324;-68
2021/05/28 07:22:36;;;;;;;7.47;6.70;;;21.00;88.40;;;;;;5102370;28;20629;-68
2021/05/28 07:25:03;;;;;;;10.60;7.23;;;20.90;84.50;;;;;;5101388;28;20638;-68
2021/05/28 07:27:29;;;;;;;7.17;6.57;;;20.80;86.80;;;;;;5102475;28;20631;-68
2021/05/28 07:29:56;;;;;;;8.10;7.30;;;20.40;87.80;;;;;;5099345;28;21618;-68
2021/05/28 07:32:22;;;;;;;8.53;7.70;;;19.80;87.80;;;;;;5100992;28;21302;-68
2021/05/28 07:34:49;;;;;;;8.00;7.30;;;19.70;88.40;;;;;;5101082;28;21049;-68
2021/05/28 07:37:15;;;;;;;10.70;8.07;;;19.40;90.00;;;;;;5102368;28;21241;-68
2021/05/28 07:39:43;;;;;;;10.80;8.43;;;18.80;90.70;;;;;;5105735;28;20679;-68
2021/05/28 07:42:10;;;;;;;8.10;7.40;;;18.40;90.80;;;;;;5101638;28;20634;-68
2021/05/28 07:44:36;;;;;;;7.63;6.93;;;18.20;90.80;;;;;;5100646;28;21179;-68
2021/05/28 07:47:02;;;;;;;9.80;9.00;;;18.30;91.00;;;;;;5097449;28;20624;-68
2021/05/28 07:49:29;;;;;;;8.40;7.50;;;18.60;91.30;;;;;;5105026;28;20637;-68
2021/05/28 07:51:55;;;;;;;8.07;7.27;;;19.30;91.10;;;;;;5102344;28;20622;-68
2021/05/28 07:54:21;;;;;;;11.43;7.73;;;19.50;90.00;;;;;;5105597;28;20653;-68
2021/05/28 07:56:48;;;;;;;7.97;7.27;;;19.20;89.20;;;;;;5105496;28;20639;-68
2021/05/28 07:59:15;;;;;;;9.37;8.43;;;19.30;90.30;;;;;;5099394;28;20695;-68
2021/05/28 08:01:41;;;;;;;8.00;7.30;;;19.70;89.60;;;;;;5104435;28;20625;-68
2021/05/28 08:04:07;;;;;;;7.20;6.50;;;19.90;87.30;;;;;;5105630;28;20635;-68
2021/05/28 08:06:33;;;;;;;7.30;6.60;;;20.30;86.90;;;;;;5099606;28;20626;-68
2021/05/28 08:09:00;;;;;;;7.30;6.63;;;20.30;87.40;;;;;;5101068;28;20720;-68
2021/05/28 08:11:26;;;;;;;8.07;7.33;;;20.40;84.90;;;;;;5105882;28;21436;-68
2021/05/28 08:13:53;;;;;;;7.43;6.73;;;20.40;86.00;;;;;;5102894;28;21287;-68
2021/05/28 08:16:20;;;;;;;8.57;7.70;;;20.60;85.00;;;;;;5107950;28;20734;-68
2021/05/28 08:18:46;;;;;;;7.73;6.97;;;20.50;84.70;;;;;;5108845;28;21029;-68
2021/05/28 08:21:13;;;;;;;7.30;6.70;;;21.00;85.70;;;;;;5107751;28;20645;-68
2021/05/28 08:23:40;;;;;;;9.10;6.73;;;21.40;82.80;;;;;;5108806;28;20672;-68
2021/05/28 08:26:07;;;;;;;5.20;4.80;;;21.80;78.90;;;;;;5106804;28;20621;-68
2021/05/28 08:28:35;;;;;;;6.73;6.07;;;21.70;74.30;;;;;;5109033;28;21032;-68
2021/05/28 08:31:04;;;;;;;5.80;5.30;;;20.90;77.40;;;;;;5106732;28;20713;-69
2021/05/28 08:33:30;;;;;;;5.33;4.87;;;20.70;78.10;;;;;;5105730;28;21235;-68
2021/05/28 08:35:57;;;;;;;4.60;4.30;;;20.60;79.60;;;;;;5107202;28;20634;-68
2021/05/28 08:38:23;;;;;;;5.40;5.00;;;20.70;76.20;;;;;;5108536;28;20635;-68
2021/05/28 08:40:50;;;;;;;4.27;3.90;;;20.70;79.10;;;;;;5109182;28;20724;-68
2021/05/28 08:43:16;;;;;;;4.60;4.20;;;20.80;77.70;;;;;;5105196;28;20649;-68
2021/05/28 08:45:44;;;;;;;4.70;3.77;;;20.70;79.10;;;;;;5107848;28;21067;-68
2021/05/28 08:48:14;;;;;;;4.87;4.47;;;20.60;78.40;;;;;;5102901;28;20690;-68
2021/05/28 08:50:41;;;;;;;4.80;4.37;;;20.10;78.70;;;;;;5105905;28;20623;-68
2021/05/28 08:53:10;;;;;;;4.70;4.30;;;20.10;81.70;;;;;;5105744;28;20631;-68
2021/05/28 08:55:37;;;;;;;4.17;3.77;;;20.60;79.20;;;;;;5108751;28;20673;-68
2021/05/28 08:58:06;;;;;;;5.60;4.07;;;21.40;78.50;;;;;;5109970;28;20637;-68
2021/05/28 09:00:32;;;;;;;5.43;4.93;;;22.50;74.20;;;;;;5103490;28;20703;-68
2021/05/28 09:03:18;;;;;;;6.20;5.67;;;22.00;74.80;;;;;;5105372;28;20656;-68
2021/05/28 09:05:45;;;;;;;4.87;4.57;;;21.30;75.80;;;;;;5096931;28;20656;-68
2021/05/28 09:08:11;;;;;;;5.73;5.23;;;20.90;79.40;;;;;;5105646;28;21208;-68
2021/05/28 09:10:39;;;;;;;6.13;4.60;;;20.80;79.30;;;;;;5108104;28;20620;-69
2021/05/28 09:13:07;;;;;;;4.20;3.90;;;20.30;76.70;;;;;;5104551;28;20703;-69
2021/05/28 09:15:37;;;;;;;5.33;4.80;;;20.10;75.90;;;;;;5106185;28;20639;-68
2021/05/28 09:18:04;;;;;;;4.97;4.57;;;19.60;81.10;;;;;;5104858;28;20630;-68
2021/05/28 09:20:31;;;;;;;5.30;4.80;;;19.00;77.90;;;;;;5103548;28;21348;-68
2021/05/28 09:23:11;;;;;;;5.30;4.90;;;18.80;82.50;;;;;;5107235;28;20756;-68
2021/05/28 09:25:57;;;;;;;7.43;5.23;;;18.90;83.10;;;;;;5106770;28;21253;-69
2021/05/28 09:28:25;;;;;;;6.43;5.40;;;18.70;81.10;;;;;;5102317;28;20961;-68
2021/05/28 09:30:59;;;;;;;5.40;4.90;;;18.90;79.60;;;;;;5107042;28;20633;-68
2021/05/28 09:33:26;;;;;;;5.07;4.57;;;18.80;80.10;;;;;;5104001;28;20653;-69
2021/05/28 09:36:07;;;;;;;4.30;3.70;;;18.50;80.40;;;;;;5103385;28;20654;-68
2021/05/28 09:38:34;;;;;;;4.93;4.53;;;18.40;78.60;;;;;;5107152;28;20631;-68
2021/05/28 09:41:00;;;;;;;5.72;5.22;;;18.10;79.70;;;;;;5107891;28;20666;-68
2021/05/28 09:43:27;;;;;;;5.03;4.63;;;17.60;82.30;;;;;;5107510;28;20196;-68
2021/05/28 09:45:54;;;;;;;5.57;4.27;;;18.30;84.20;;;;;;5100812;28;20199;-68
2021/05/28 09:48:25;;;;;;;5.33;4.40;;;18.90;82.30;;;;;;5099124;28;20632;-68
2021/05/28 09:50:55;;;;;;;4.13;3.83;;;19.30;82.90;;;;;;5099614;28;20700;-69
2021/05/28 09:53:32;;;;;;;4.33;3.87;;;19.60;79.80;;;;;;5101480;28;20619;-68
2021/05/28 09:56:00;;;;;;;4.03;3.63;;;19.70;79.60;;;;;;5101294;28;20724;-67
2021/05/28 09:58:48;;;;;;;4.03;3.63;;;19.90;79.60;;;;;;5101645;28;20633;-68
2021/05/28 10:01:14;;;;;;;4.40;4.00;;;20.40;76.40;;;;;;5103055;28;20720;-68
2021/05/28 10:03:40;;;;;;;3.97;3.67;;;20.60;78.00;;;;;;5105466;28;20724;-68
2021/05/28 10:06:08;;;;;;;4.60;4.20;;;20.60;75.90;;;;;;5106732;28;20718;-68
2021/05/28 10:08:34;;;;;;;4.77;4.10;;;20.90;74.00;;;;;;5104398;28;20640;-69
2021/05/28 10:11:01;;;;;;;4.67;4.33;;;20.40;74.20;;;;;;5105490;28;20738;-66
2021/05/28 10:13:28;;;;;;;4.40;4.10;;;20.40;76.50;;;;;;5089550;28;20622;-68
2021/05/28 10:15:58;;;;;;;4.80;4.10;;;20.50;78.70;;;;;;5100896;28;20649;-69
2021/05/28 10:18:25;;;;;;;4.40;4.10;;;20.40;76.70;;;;;;5106444;27;21062;-68
2021/05/28 10:20:53;;;;;;;4.63;4.27;;;19.70;76.40;;;;;;5104298;28;20721;-68
2021/05/28 10:23:22;;;;;;;4.80;4.03;;;19.30;77.30;;;;;;5105534;28;21075;-68
2021/05/28 10:25:54;;;;;;;4.60;4.20;;;19.20;78.20;;;;;;5102419;28;21039;-68
2021/05/28 10:28:22;;;;;;;5.10;4.40;;;19.20;78.60;;;;;;5104156;28;20640;-68
2021/05/28 10:30:50;;;;;;;5.00;4.40;;;19.50;75.70;;;;;;5107618;28;20657;-68
2021/05/28 10:33:18;;;;;;;4.77;4.37;;;19.90;80.20;;;;;;5106241;28;20737;-68
2021/05/28 10:35:46;;;;;;;3.03;2.83;;;20.80;77.10;;;;;;5104460;28;20677;-68
2021/05/28 10:38:37;;;;;;;4.40;3.97;;;21.00;69.90;;;;;;5100410;28;21202;-68
2021/05/28 10:41:35;;;;;;;3.70;3.40;;;20.80;68.80;;;;;;5103933;28;20677;-68
2021/05/28 10:44:06;;;;;;;3.80;3.50;;;20.70;70.00;;;;;;5105644;28;21156;-67
2021/05/28 10:46:33;;;;;;;4.40;4.10;;;20.00;70.70;;;;;;5102825;28;20629;-68
2021/05/28 10:49:09;;;;;;;4.27;3.97;;;20.20;77.30;;;;;;5105306;28;20737;-69
2021/05/28 10:52:02;;;;;;;3.63;3.33;;;20.50;76.30;;;;;;5104823;28;20626;-68
2021/05/28 10:54:35;;;;;;;4.97;3.03;;;20.50;72.00;;;;;;5099393;28;21967;-68
2021/05/28 10:57:25;;;;;;;6.23;2.67;;;20.80;69.90;;;;;;5104599;28;20633;-68
2021/05/28 10:59:54;;;;;;;3.33;3.03;;;20.70;68.40;;;;;;5099391;28;20685;-68
2021/05/28 11:02:54;;;;;;;4.13;3.60;;;20.40;70.70;;;;;;5101550;28;20617;-69
2021/05/28 11:05:45;;;;;;;3.90;3.60;;;20.70;67.20;;;;;;5101040;28;20630;-68
2021/05/28 11:08:52;;;;;;;4.60;3.70;;;20.40;70.60;;;;;;5096708;28;20998;-68
2021/05/28 11:11:54;;;;;;;3.90;3.60;;;20.10;69.00;;;;;;5097623;28;21060;-68
2021/05/28 11:14:21;;;;;;;4.10;3.80;;;19.80;72.40;;;;;;5098086;28;20725;-68
2021/05/28 11:17:13;;;;;;;4.27;3.97;;;19.80;69.60;;;;;;5100026;28;20683;-69
2021/05/28 11:19:46;;;;;;;4.20;3.90;;;19.10;73.00;;;;;;5102627;28;20700;-69
2021/05/28 11:22:24;;;;;;;4.00;3.70;;;19.90;77.60;;;;;;5106241;28;20644;-68
2021/05/28 11:25:00;;;;;;;4.10;3.70;;;20.50;73.60;;;;;;5105270;28;20646;-68
2021/05/28 11:27:45;;;;;;;4.13;3.80;;;20.50;74.90;;;;;;5105839;28;20626;-68
2021/05/28 11:30:40;;;;;;;4.23;3.93;;;20.60;73.30;;;;;;5100001;28;20808;-68
2021/05/28 11:33:07;;;;;;;4.20;3.80;;;20.80;69.50;;;;;;5104519;28;20729;-69
2021/05/28 11:35:41;;;;;;;3.67;3.37;;;20.90;67.50;;;;;;5088442;28;20641;-68
2021/05/28 11:38:10;;;;;;;3.80;3.43;;;20.70;66.00;;;;;;5099120;28;20629;-68
2021/05/28 11:40:41;;;;;;;3.43;3.13;;;20.70;67.40;;;;;;5102384;28;20700;-68
2021/05/28 11:43:09;;;;;;;3.70;3.40;;;20.40;70.60;;;;;;5105429;28;20653;-68
2021/05/28 11:45:38;;;;;;;3.07;2.87;;;19.90;71.90;;;;;;5098888;28;20653;-68
2021/05/28 11:48:10;;;;;;;3.57;3.27;;;19.50;71.40;;;;;;5105248;28;20737;-68
2021/05/28 11:50:40;;;;;;;3.63;3.33;;;19.10;71.80;;;;;;5110155;28;20682;-68
2021/05/28 11:53:08;;;;;;;4.27;3.87;;;18.70;71.90;;;;;;5111771;28;21166;-68
2021/05/28 11:55:43;;;;;;;5.23;4.70;;;18.40;73.60;;;;;;5104246;28;20669;-68
2021/05/28 11:58:12;;;;;;;4.40;4.00;;;18.20;73.90;;;;;;5110713;28;20633;-68
2021/05/28 12:00:40;;;;;;;3.80;3.50;;;18.10;74.00;;;;;;5110241;28;20235;-68
2021/05/28 12:03:08;;;;;;;4.05;3.75;;;17.90;74.20;;;;;;5108982;28;20203;-68
2021/05/28 12:05:37;;;;;;;3.65;3.35;;;18.00;75.00;;;;;;5108687;28;20447;-68
2021/05/28 12:08:18;;;;;;;3.20;3.00;;;18.20;72.50;;;;;;5104879;28;20197;-67
2021/05/28 12:10:46;;;;;;;3.05;2.85;;;18.60;72.20;;;;;;5109510;28;20306;-68
2021/05/28 12:13:15;;;;;;;2.95;2.75;;;19.20;73.20;;;;;;5106803;28;20637;-68
2021/05/28 12:15:44;;;;;;;3.13;2.93;;;19.50;67.40;;;;;;5105835;28;20254;-68
2021/05/28 12:18:16;;;;;;;3.17;2.93;;;19.60;69.20;;;;;;5109509;28;21154;-68
2021/05/28 12:20:44;;;;;;;2.80;2.63;;;19.60;73.00;;;;;;5111880;28;20777;-68
2021/05/28 12:23:16;;;;;;;2.70;2.50;;;19.90;67.40;;;;;;5109637;28;20732;-68
2021/05/28 12:25:45;;;;;;;2.80;2.60;;;19.20;66.40;;;;;;5111734;28;20724;-68
2021/05/28 12:28:17;;;;;;;2.90;2.70;;;18.50;66.30;;;;;;5111256;28;20294;-68
2021/05/28 12:30:48;;;;;;;2.70;2.55;;;18.10;67.60;;;;;;5105497;28;20203;-68
2021/05/28 12:33:16;;;;;;;2.90;2.70;;;18.00;69.10;;;;;;5109051;28;20200;-67
2021/05/28 12:35:42;;;;;;;3.75;3.00;;;18.10;70.20;;;;;;5106952;28;20602;-68
2021/05/28 12:38:12;;;;;;;3.33;3.03;;;18.10;70.90;;;;;;5105099;28;20680;-68
2021/05/28 12:40:43;;;;;;;3.75;3.17;;;18.10;72.10;;;;;;5102963;28;20224;-68
2021/05/28 12:43:10;;;;;;;4.45;2.97;;;18.10;71.40;;;;;;5108623;28;20206;-68
2021/05/28 12:45:41;;;;;;;2.50;2.30;;;18.10;72.10;;;;;;5104936;28;20693;-68
2021/05/28 12:48:11;;;;;;;2.60;2.40;;;18.40;70.40;;;;;;5106890;28;20195;-68
2021/05/28 12:50:39;;;;;;;2.30;2.20;;;18.80;69.00;;;;;;5102581;28;20275;-68
2021/05/28 12:53:11;;;;;;;2.83;2.63;;;19.30;65.30;;;;;;5107814;28;21189;-68